ADDS METAR Data INFO
IDs: Format: Raw Decoded Include TAF

Data at: 0113 UTC 21 Oct 2017

KAJZ 210055Z AUTO 20007KT 10SM SCT120 21/M05 A2962 RMK AO2 T02101048
KAJZ 210035Z AUTO 21007KT 10SM SCT120 21/M05 A2963 RMK AO2 T02121047
KAJZ 210015Z AUTO 21011G15KT 10SM CLR 22/M05 A2963 RMK AO2 T02161048
KAJZ 202355Z AUTO 22015G25KT 10SM CLR 22/M05 A2964 RMK AO2 T02241051 10252 20224
KAJZ 202335Z AUTO 20018G23KT 10SM CLR 23/M05 A2963 RMK AO2 T02341054
KAJZ 202315Z AUTO 21016G23KT 10SM SCT110 24/M05 A2965 RMK AO2 T02401053
KAJZ 202255Z AUTO 22018G25KT 10SM BKN110 23/M05 A2966 RMK AO2 T02301049
KAJZ 202235Z AUTO 23020G28KT 10SM SCT110 24/M05 A2966 RMK AO2 T02371055
KAJZ 202215Z AUTO 23016G23KT 10SM SCT110 25/M05 A2966 RMK AO2 T02471052
KAJZ 202155Z AUTO 23015G32KT 10SM SCT100 25/M05 A2966 RMK AO2 T02491049
KAJZ 202135Z AUTO 23016G27KT 10SM SCT100 25/M05 A2968 RMK AO2 T02491049
KAJZ 202115Z AUTO 22018G30KT 10SM SCT100 25/M05 A2968 RMK AO2 T02511052
KAJZ 202055Z AUTO 21016G22KT 10SM CLR 25/M05 A2968 RMK AO2 T02501049
KAJZ 202035Z AUTO 21015G23KT 10SM CLR 25/M05 A2970 RMK AO2 T02461048
KAJZ 202015Z AUTO 22023G29KT 10SM CLR 25/M05 A2972 RMK AO2 T02471055
KAJZ 201955Z AUTO 21017G27KT 10SM CLR 24/M03 A2973 RMK AO2 T02431032
KAJZ 201935Z AUTO 22021G30KT 10SM CLR 24/M02 A2974 RMK AO2 T02411017
KAJZ 201915Z AUTO 22027G33KT 10SM SCT090 24/M01 A2975 RMK AO2 T02441010
KAJZ 201855Z AUTO 20022G30KT 10SM SCT090 24/M01 A2976 RMK AO2 T02421009
KAJZ 201835Z AUTO 22015G28KT 10SM SCT090 24/00 A2977 RMK AO2 T02400000
KAJZ 201815Z AUTO 20013G21KT 10SM BKN090 24/00 A2979 RMK AO2 T02380002
KAJZ 201755Z AUTO 23009KT 10SM SCT080 23/01 A2979 RMK AO2 T02250007 10225 20089
KAJZ 201735Z AUTO 20004KT 10SM CLR 21/01 A2979 RMK AO2 T02140010
KAJZ 201715Z AUTO 00000KT 10SM CLR 21/01 A2980 RMK AO2 T02070009
KAJZ 201655Z AUTO 07005KT 10SM CLR 20/01 A2981 RMK AO2 T02040010
KAJZ 201635Z AUTO 06004KT 10SM CLR 20/01 A2982 RMK AO2 T01960010
KAJZ 201615Z AUTO 09006KT 10SM CLR 18/01 A2983 RMK AO2 T01780008
KAJZ 201555Z AUTO 05006KT 10SM CLR 16/01 A2985 RMK AO2 T01610011
KAJZ 201535Z AUTO 05006KT 10SM CLR 14/01 A2987 RMK AO2 T01430013
KAJZ 201515Z AUTO 00000KT 10SM SCT090 12/01 A2988 RMK AO2 T01210010
KAJZ 201455Z AUTO 00000KT 10SM SCT090 13/01 A2989 RMK AO2 T01260005
KAJZ 201435Z AUTO 00000KT 10SM CLR 11/01 A2989 RMK AO2 T01110006
KAJZ 201415Z AUTO 00000KT 10SM CLR 10/00 A2987 RMK AO2 T01010001
KAJZ 201355Z AUTO 02006KT 10SM CLR 10/01 A2987 RMK AO2 T01000005
KAJZ 201335Z AUTO 00000KT 10SM CLR 09/00 A2987 RMK AO2 T00910000
KAJZ 201315Z AUTO 00000KT 10SM SCT095 SCT120 11/00 A2987 RMK AO2 T01050000
KAJZ 201255Z AUTO 00000KT 10SM BKN120 10/00 A2988 RMK AO2 T01030000
KAJZ 201235Z AUTO 35003KT 10SM BKN110 12/00 A2988 RMK AO2 T01200001
KAJZ 201215Z AUTO 06006KT 10SM SCT120 12/00 A2988 RMK AO2 T01230001
KAJZ 201155Z AUTO 06007KT 10SM SCT120 11/M01 A2988 RMK AO2 T01121007 10145 20106
KAJZ 201135Z AUTO 03007KT 10SM CLR 11/M01 A2988 RMK AO2 T01121009
KAJZ 201115Z AUTO 05007KT 10SM CLR 11/M01 A2988 RMK AO2 T01111009
KAJZ 201055Z AUTO 03006KT 10SM CLR 11/00 A2989 RMK AO2 T01131005
KAJZ 201035Z AUTO 05006KT 10SM SCT100 11/00 A2989 RMK AO2 T01111004
KAJZ 201015Z AUTO 06006KT 10SM SCT100 11/00 A2990 RMK AO2 T01141005
KAJZ 200955Z AUTO 02005KT 10SM SCT100 11/00 A2991 RMK AO2 T01111002
KAJZ 200935Z AUTO 07005KT 10SM SCT100 BKN120 12/M01 A2991 RMK AO2 T01161006
KAJZ 200915Z AUTO 00000KT 10SM SCT100 12/00 A2992 RMK AO2 T01161002
KAJZ 200855Z AUTO 00000KT 10SM SCT100 12/M01 A2993 RMK AO2 T01211008
KAJZ 200835Z AUTO 00000KT 10SM SCT120 13/M01 A2993 RMK AO2 T01291008
KAJZ 200815Z AUTO 00000KT 10SM BKN120 13/M01 A2993 RMK AO2 T01301015
KAJZ 200755Z AUTO 03003KT 10SM SCT120 13/M02 A2993 RMK AO2 T01321021
KAJZ 200735Z AUTO 00000KT 10SM BKN120 12/M02 A2994 RMK AO2 T01231023
KAJZ 200715Z AUTO 00000KT 10SM CLR 13/M03 A2994 RMK AO2 T01331026
KAJZ 200655Z AUTO 02008KT 10SM CLR 14/M02 A2994 RMK AO2 T01361022
KAJZ 200635Z AUTO 02006KT 10SM CLR 13/M03 A2995 RMK AO2 T01271026
KAJZ 200615Z AUTO 04008KT 10SM CLR 14/M02 A2996 RMK AO2 T01411024
KAJZ 200555Z AUTO 07007KT 10SM CLR 14/M04 A2996 RMK AO2 T01401042 10227 20140 402610033
KAJZ 200535Z AUTO 00000KT 10SM SCT110 15/M03 A2996 RMK AO2 T01501035
KAJZ 200515Z AUTO 05004KT 10SM SCT110 15/M04 A2996 RMK AO2 T01531036
KAJZ 200455Z AUTO 00000KT 10SM SCT120 15/M03 A2997 RMK AO2 T01481035
KAJZ 200435Z AUTO 00000KT 10SM CLR 16/M04 A2998 RMK AO2 T01551042
KAJZ 200415Z AUTO 00000KT 10SM CLR 15/M04 A2998 RMK AO2 T01481039
KAJZ 200355Z AUTO 02004KT 10SM CLR 15/M04 A2997 RMK AO2 T01521040
KAJZ 200335Z AUTO 02006KT 10SM CLR 15/M03 A2997 RMK AO2 T01491035
KAJZ 200315Z AUTO 02006KT 10SM SCT110 15/M04 A2997 RMK AO2 T01491036
KAJZ 200255Z AUTO 03005KT 10SM CLR 15/M04 A2997 RMK AO2 T01511037
KAJZ 200235Z AUTO 06005KT 10SM CLR 16/M06 A2997 RMK AO2 T01561057
KAJZ 200215Z AUTO 09005KT 10SM CLR 16/M06 A2997 RMK AO2 T01611056
KAJZ 200155Z AUTO 00000KT 10SM CLR 18/M06 A2997 RMK AO2 T01751057
KAJZ 200135Z AUTO 20003KT 10SM CLR 18/M06 A2997 RMK AO2 T01781057
KAJZ 200115Z AUTO 00000KT 10SM CLR 19/M05 A2996 RMK AO2 T01871054
KAJZ 200055Z AUTO 24005KT 10SM CLR 19/M06 A2996 RMK AO2 T01891058
KAJZ 200035Z AUTO 19006KT 10SM CLR 20/M05 A2996 RMK AO2 T02041046
KAJZ 200015Z AUTO 26008KT 10SM SCT120 23/M03 A2996 RMK AO2 T02251026
KAJZ 192355Z AUTO 28008KT 10SM CLR 23/M04 A2996 RMK AO2 T02261036 10261 20182
KAJZ 192335Z AUTO 25009KT 10SM CLR 23/M07 A2996 RMK AO2 T02261069
KAJZ 192315Z AUTO 25010KT 10SM CLR 23/M07 A2996 RMK AO2 T02331071
KAJZ 192255Z AUTO 24008KT 10SM CLR 25/M01 A2996 RMK AO2 T02521013
KAJZ 192235Z AUTO 27006KT 10SM CLR 26/M02 A2997 RMK AO2 T02581018
KAJZ 192215Z AUTO 26007KT 10SM CLR 26/M01 A2997 RMK AO2 T02581015
KAJZ 192155Z AUTO 28008KT 10SM CLR 26/M01 A2997 RMK AO2 T02571010
KAJZ 192135Z AUTO 28008KT 10SM CLR 26/M02 A2997 RMK AO2 T02551016
KAJZ 192115Z AUTO 21004KT 10SM CLR 24/M08 A2998 RMK AO2 T02431078
KAJZ 192055Z AUTO 25004KT 10SM CLR 25/M08 A2999 RMK AO2 T02511085
KAJZ 192035Z AUTO 00000KT 10SM SCT120 25/M08 A3000 RMK AO2 T02481085
KAJZ 192015Z AUTO 00000KT 10SM SCT120 24/M09 A3001 RMK AO2 T02381087
KAJZ 191955Z AUTO 00000KT 10SM SCT120 23/M08 A3002 RMK AO2 T02311085
KAJZ 191935Z AUTO 00000KT 10SM SCT120 21/M08 A3003 RMK AO2 T02141083
KAJZ 191915Z AUTO 00000KT 10SM SCT120 21/M09 A3005 RMK AO2 T02061087
KAJZ 191855Z AUTO 00000KT 10SM CLR 20/M09 A3007 RMK AO2 T02021092
KAJZ 191835Z AUTO 00000KT 10SM CLR 19/M09 A3008 RMK AO2 T01931091
KAJZ 191815Z AUTO 16003KT 10SM CLR 19/M09 A3009 RMK AO2 T01901088
KAJZ 191755Z AUTO 00000KT 10SM CLR 18/M08 A3010 RMK AO2 LTG DSNT S T01811082 10181 20033
KAJZ 191735Z AUTO 00000KT 10SM CLR 17/M08 A3011 RMK AO2 T01661079
KAJZ 191715Z AUTO 00000KT 10SM CLR 16/M09 A3012 RMK AO2 T01611091
KAJZ 191655Z AUTO 12005KT 10SM CLR 16/M09 A3013 RMK AO2 T01551090
KAJZ 191635Z AUTO 00000KT 10SM CLR 15/M10 A3013 RMK AO2 T01511102
KAJZ 191615Z AUTO 03004KT 10SM CLR 13/M09 A3014 RMK AO2 T01341095
KAJZ 191555Z AUTO 02004KT 10SM CLR 12/M08 A3015 RMK AO2 T01161080
KAJZ 191535Z AUTO 00000KT 10SM CLR 09/M09 A3016 RMK AO2 T00911087
KAJZ 191515Z AUTO 00000KT 10SM CLR 08/M09 A3016 RMK AO2 T00751088
KAJZ 191455Z AUTO 09003KT 10SM CLR 09/M09 A3015 RMK AO2 T00861088
KAJZ 191435Z AUTO 07003KT 10SM CLR 07/M09 A3015 RMK AO2 T00721089
KAJZ 191415Z AUTO 08003KT 10SM CLR 05/M09 A3014 RMK AO2 T00541090
KAJZ 191355Z AUTO 03003KT 10SM CLR 05/M06 A3014 RMK AO2 T00491065
KAJZ 191335Z AUTO 00000KT 10SM CLR 04/M07 A3014 RMK AO2 T00401074
KAJZ 191315Z AUTO 00000KT 10SM CLR 05/M09 A3014 RMK AO2 T00451086